createdAt,value
2022-08-14T00:02:33.573Z,17.18
2022-08-14T00:05:44.312Z,17.10
2022-08-14T00:08:50.025Z,17.09
2022-08-14T00:11:56.791Z,17.05
2022-08-14T00:15:37.304Z,16.99
2022-08-14T00:19:05.678Z,17.05
2022-08-14T00:22:44.335Z,17.08
2022-08-14T00:26:06.260Z,17.08
2022-08-14T00:29:14.068Z,17.03
2022-08-14T00:32:52.705Z,17.02
2022-08-14T00:36:35.797Z,17.05
2022-08-14T00:39:18.641Z,17.11
2022-08-14T00:42:55.244Z,17.10
2022-08-14T00:45:56.498Z,17.13
2022-08-14T00:49:14.777Z,17.16
2022-08-14T00:52:21.725Z,17.24
2022-08-14T00:55:31.137Z,17.23
2022-08-14T00:58:44.842Z,17.18
2022-08-14T01:01:51.403Z,17.19
2022-08-14T01:05:05.176Z,17.12
2022-08-14T01:08:20.561Z,17.10
2022-08-14T01:11:41.008Z,17.13
2022-08-14T01:14:55.680Z,17.14
2022-08-14T01:18:16.903Z,17.14
2022-08-14T01:21:34.766Z,17.13
2022-08-14T01:24:45.767Z,17.09
2022-08-14T01:27:57.603Z,16.96
2022-08-14T01:31:06.464Z,16.88
2022-08-14T01:35:17.179Z,16.90
2022-08-14T01:37:56.481Z,16.80
2022-08-14T01:41:14.789Z,16.86
2022-08-14T01:44:32.182Z,16.83
2022-08-14T01:47:39.851Z,16.80
2022-08-14T01:50:46.294Z,16.81
2022-08-14T01:54:06.071Z,16.86
2022-08-14T01:57:11.816Z,16.91
2022-08-14T02:00:19.329Z,16.96
2022-08-14T02:03:30.957Z,16.99
2022-08-14T02:06:38.335Z,17.01
2022-08-14T02:09:56.013Z,17.00
2022-08-14T02:13:05.868Z,17.06
2022-08-14T02:16:22.588Z,17.03
2022-08-14T02:19:36.454Z,17.06
2022-08-14T02:22:48.246Z,17.01
2022-08-14T02:26:24.282Z,16.91
2022-08-14T02:29:59.251Z,16.94
2022-08-14T02:33:05.732Z,16.92
2022-08-14T02:37:04.831Z,16.96
2022-08-14T02:39:50.954Z,16.86
2022-08-14T02:43:00.577Z,16.91
2022-08-14T02:46:12.806Z,16.86
2022-08-14T02:49:18.653Z,16.87
2022-08-14T02:52:57.561Z,16.88
2022-08-14T02:56:02.622Z,16.92
2022-08-14T02:59:28.854Z,16.89
2022-08-14T03:02:56.797Z,16.88
2022-08-14T03:06:08.922Z,16.90
2022-08-14T03:09:14.975Z,16.88
2022-08-14T03:12:30.915Z,16.94
2022-08-14T03:15:42.756Z,16.94
2022-08-14T03:18:53.853Z,16.92
2022-08-14T03:21:59.711Z,17.03
2022-08-14T03:25:12.356Z,16.98
2022-08-14T03:28:29.504Z,17.03
2022-08-14T03:31:44.637Z,16.96
2022-08-14T03:34:55.501Z,16.99
2022-08-14T03:39:12.833Z,16.95
2022-08-14T03:41:37.409Z,16.92
2022-08-14T03:45:19.617Z,16.89
2022-08-14T03:48:30.461Z,16.80
2022-08-14T03:51:40.517Z,16.74
2022-08-14T03:54:52.599Z,16.81
2022-08-14T03:58:00.613Z,16.81
2022-08-14T04:01:15.841Z,16.76
2022-08-14T04:04:25.916Z,16.74
2022-08-14T04:07:32.912Z,16.74
2022-08-14T04:10:41.728Z,16.72
2022-08-14T04:13:49.395Z,16.63
2022-08-14T04:16:56.458Z,16.73
2022-08-14T04:20:07.087Z,16.75
2022-08-14T04:23:23.329Z,16.81
2022-08-14T04:26:42.492Z,16.77
2022-08-14T04:29:57.679Z,16.82
2022-08-14T04:33:12.114Z,16.80
2022-08-14T04:36:27.803Z,16.84
2022-08-14T04:39:56.674Z,16.77
2022-08-14T04:43:17.247Z,16.73
2022-08-14T04:46:55.656Z,16.74
2022-08-14T04:49:57.224Z,16.63
2022-08-14T04:53:23.196Z,16.65
2022-08-14T04:56:45.622Z,16.76
2022-08-14T04:59:52.957Z,16.82
2022-08-14T05:03:07.430Z,16.92
2022-08-14T05:06:37.818Z,16.85
2022-08-14T05:09:47.935Z,16.90
2022-08-14T05:13:12.840Z,16.88
2022-08-14T05:16:20.311Z,17.02
2022-08-14T05:19:44.748Z,17.06
2022-08-14T05:23:11.151Z,17.16
2022-08-14T05:26:21.916Z,17.11
2022-08-14T05:29:29.669Z,17.26
2022-08-14T05:32:37.527Z,17.33
2022-08-14T05:35:43.949Z,17.37
2022-08-14T05:38:53.084Z,17.29
2022-08-14T05:42:09.992Z,17.33
2022-08-14T05:45:37.752Z,17.20
2022-08-14T05:48:43.816Z,17.01
2022-08-14T05:52:01.894Z,17.00
2022-08-14T05:55:13.563Z,16.86
2022-08-14T05:58:23.035Z,16.97
2022-08-14T06:01:39.581Z,16.93
2022-08-14T06:04:49.357Z,16.89
2022-08-14T06:07:55.617Z,16.85
2022-08-14T06:11:07.120Z,16.80
2022-08-14T06:14:21.289Z,16.75
2022-08-14T06:17:30.007Z,16.75
2022-08-14T06:20:51.613Z,16.93
2022-08-14T06:24:10.366Z,16.83
2022-08-14T06:27:33.138Z,16.81
2022-08-14T06:30:47.183Z,16.92
2022-08-14T06:35:03.796Z,17.11
2022-08-14T06:37:47.940Z,17.12
2022-08-14T06:40:55.556Z,17.15
2022-08-14T06:44:03.785Z,17.11
2022-08-14T06:47:14.678Z,17.13
2022-08-14T06:50:27.824Z,17.18
2022-08-14T06:53:33.785Z,17.50
2022-08-14T06:56:39.730Z,17.67
2022-08-14T06:59:56.849Z,17.90
2022-08-14T07:03:32.934Z,18.06
2022-08-14T07:06:46.228Z,18.22
2022-08-14T07:09:52.629Z,18.26
2022-08-14T07:13:04.063Z,18.22
2022-08-14T07:16:17.279Z,18.18
2022-08-14T07:19:31.859Z,18.13
2022-08-14T07:22:56.143Z,18.18
2022-08-14T07:26:10.831Z,18.14
2022-08-14T07:29:24.083Z,17.98
2022-08-14T07:32:34.139Z,18.05
2022-08-14T07:35:58.335Z,17.99
2022-08-14T07:39:12.511Z,18.08
2022-08-14T07:42:25.979Z,18.11
2022-08-14T07:45:32.667Z,18.24
2022-08-14T07:48:44.969Z,18.24
2022-08-14T07:51:56.953Z,18.31
2022-08-14T07:55:05.158Z,18.30
2022-08-14T07:58:34.261Z,18.08
2022-08-14T08:01:57.355Z,18.20
2022-08-14T08:05:05.707Z,18.07
2022-08-14T08:08:26.835Z,18.18
2022-08-14T08:11:37.712Z,18.21
2022-08-14T08:14:56.082Z,18.27
2022-08-14T08:18:27.305Z,18.49
2022-08-14T08:21:35.557Z,18.67
2022-08-14T08:24:43.847Z,18.72
2022-08-14T08:28:19.862Z,19.06
2022-08-14T08:31:32.953Z,19.41
2022-08-14T08:34:49.200Z,19.68
2022-08-14T08:38:01.622Z,19.86
2022-08-14T08:41:22.839Z,20.17
2022-08-14T08:44:34.437Z,20.00
2022-08-14T08:47:45.377Z,19.84
2022-08-14T08:50:52.349Z,19.81
2022-08-14T08:54:03.227Z,19.67
2022-08-14T08:57:21.493Z,19.41
2022-08-14T09:00:35.128Z,19.18
2022-08-14T09:03:50.544Z,19.05
2022-08-14T09:07:10.375Z,18.97
2022-08-14T09:10:31.987Z,18.93
2022-08-14T09:14:05.591Z,18.70
2022-08-14T09:17:18.081Z,18.51
2022-08-14T09:20:30.606Z,18.48
2022-08-14T09:24:26.784Z,18.38
2022-08-14T09:27:02.873Z,18.49
2022-08-14T09:30:32.802Z,18.54
2022-08-14T09:34:27.323Z,18.51
2022-08-14T09:37:51.749Z,18.37
2022-08-14T09:42:20.472Z,18.69
2022-08-14T09:45:19.143Z,18.60
2022-08-14T09:48:30.976Z,18.59
2022-08-14T09:51:58.555Z,18.60
2022-08-14T09:55:05.189Z,18.82
2022-08-14T09:58:22.828Z,19.03
2022-08-14T10:01:41.599Z,19.20
2022-08-14T10:04:50.037Z,19.42
2022-08-14T10:07:58.856Z,19.77
2022-08-14T10:11:23.347Z,19.58
2022-08-14T10:14:35.729Z,19.88
2022-08-14T10:17:44.983Z,20.32
2022-08-14T10:21:01.036Z,20.65
2022-08-14T10:24:36.900Z,21.06
2022-08-14T10:27:46.728Z,21.29
2022-08-14T10:30:55.818Z,21.86
2022-08-14T10:34:12.923Z,22.00
2022-08-14T10:37:23.101Z,22.29
2022-08-14T10:40:44.289Z,22.44
2022-08-14T10:44:21.407Z,22.34
2022-08-14T10:48:08.081Z,22.21
2022-08-14T10:51:08.744Z,22.45
2022-08-14T10:54:26.122Z,22.79
2022-08-14T10:57:53.418Z,22.91
2022-08-14T11:01:08.275Z,23.66
2022-08-14T11:04:30.300Z,24.32
2022-08-14T11:07:41.532Z,24.46
2022-08-14T11:10:52.953Z,24.46
2022-08-14T11:14:00.315Z,24.17
2022-08-14T11:17:06.000Z,24.48
2022-08-14T11:20:17.388Z,23.98
2022-08-14T11:23:38.597Z,24.31
2022-08-14T11:26:49.537Z,23.21
2022-08-14T11:30:50.922Z,24.19
2022-08-14T11:33:35.578Z,23.79
2022-08-14T11:37:04.314Z,24.76
2022-08-14T11:40:28.648Z,25.80
2022-08-14T11:43:40.780Z,25.57
2022-08-14T11:46:47.465Z,25.73
2022-08-14T11:49:54.279Z,26.76
2022-08-14T11:53:04.530Z,26.75
2022-08-14T11:56:13.184Z,26.60
2022-08-14T11:59:26.590Z,26.49
2022-08-14T12:03:11.067Z,24.93
2022-08-14T12:06:29.772Z,23.55
2022-08-14T12:09:49.025Z,23.58
2022-08-14T12:13:17.600Z,23.69
2022-08-14T12:16:26.265Z,23.61
2022-08-14T12:19:33.410Z,23.44
2022-08-14T12:22:45.243Z,23.47
2022-08-14T12:26:32.003Z,23.67
2022-08-14T12:29:36.823Z,24.32
2022-08-14T12:32:48.411Z,24.53
2022-08-14T12:35:57.814Z,25.15
2022-08-14T12:39:07.315Z,25.30
2022-08-14T12:42:27.320Z,25.23
2022-08-14T12:45:54.861Z,24.46
2022-08-14T12:49:08.847Z,24.56
2022-08-14T12:52:17.154Z,25.05
2022-08-14T12:55:32.728Z,25.16
2022-08-14T12:58:59.129Z,24.81
2022-08-14T13:02:13.601Z,24.59
2022-08-14T13:05:44.069Z,24.63
2022-08-14T13:09:00.298Z,24.33
2022-08-14T13:12:34.834Z,23.63
2022-08-14T13:15:42.875Z,23.80
2022-08-14T13:18:58.355Z,24.37
2022-08-14T13:22:10.051Z,24.69
2022-08-14T13:25:31.587Z,24.39
2022-08-14T13:29:02.771Z,24.45
2022-08-14T13:32:11.845Z,24.31
2022-08-14T13:35:26.253Z,23.43
2022-08-14T13:38:32.358Z,23.18
2022-08-14T13:41:38.764Z,23.20
2022-08-14T13:44:45.468Z,23.34
2022-08-14T13:47:53.274Z,23.25
2022-08-14T13:51:12.123Z,23.30
2022-08-14T13:54:25.965Z,23.12
2022-08-14T13:57:49.489Z,23.32
2022-08-14T14:00:58.458Z,23.64
2022-08-14T14:04:08.273Z,23.21
2022-08-14T14:07:32.131Z,23.85
2022-08-14T14:10:41.101Z,24.11
2022-08-14T14:13:51.631Z,24.21
2022-08-14T14:17:01.047Z,23.23
2022-08-14T14:20:35.388Z,23.67
2022-08-14T14:23:46.967Z,24.07
2022-08-14T14:26:53.415Z,24.25
2022-08-14T14:30:03.551Z,23.78
2022-08-14T14:33:48.794Z,24.07
2022-08-14T14:36:56.101Z,23.88
2022-08-14T14:40:54.103Z,23.88
2022-08-14T14:43:39.090Z,23.62
2022-08-14T14:46:50.207Z,23.05
2022-08-14T14:49:58.606Z,23.28
2022-08-14T14:53:13.213Z,23.80
2022-08-14T14:56:50.580Z,24.11
2022-08-14T14:59:50.973Z,23.48
2022-08-14T15:02:59.619Z,23.22
2022-08-14T15:06:05.767Z,23.45
2022-08-14T15:09:17.949Z,23.52
2022-08-14T15:12:55.198Z,23.69
2022-08-14T15:15:52.813Z,23.99
2022-08-14T15:18:58.423Z,24.01
2022-08-14T15:22:04.090Z,23.93
2022-08-14T15:25:14.951Z,24.12
2022-08-14T15:28:26.906Z,24.25
2022-08-14T15:31:32.878Z,24.26
2022-08-14T15:34:51.874Z,24.18
2022-08-14T15:37:58.607Z,23.99
2022-08-14T15:41:08.605Z,23.94
2022-08-14T15:44:24.702Z,23.90
2022-08-14T15:47:41.652Z,23.85
2022-08-14T15:50:49.278Z,23.92
2022-08-14T15:53:57.225Z,23.81
2022-08-14T15:57:08.483Z,23.80
2022-08-14T16:00:40.895Z,23.85
2022-08-14T16:03:53.688Z,23.85
2022-08-14T16:06:59.342Z,23.89
2022-08-14T16:10:28.358Z,23.85
2022-08-14T16:13:39.627Z,23.67
2022-08-14T16:17:00.540Z,23.80
2022-08-14T16:20:10.084Z,23.89
2022-08-14T16:23:18.375Z,24.05
2022-08-14T16:26:29.876Z,24.08
2022-08-14T16:29:43.371Z,24.19
2022-08-14T16:32:54.870Z,23.93
2022-08-14T16:36:03.543Z,23.98
2022-08-14T16:39:29.472Z,24.08
2022-08-14T16:43:04.358Z,24.18
2022-08-14T16:46:09.688Z,24.20
2022-08-14T16:49:20.239Z,24.18
2022-08-14T16:52:44.471Z,24.21
2022-08-14T16:56:23.448Z,24.13
2022-08-14T16:59:30.485Z,24.22
2022-08-14T17:03:04.866Z,24.10
2022-08-14T17:06:30.576Z,24.01
2022-08-14T17:09:43.377Z,23.86
2022-08-14T17:12:52.122Z,23.81
2022-08-14T17:16:09.384Z,23.69
2022-08-14T17:19:41.123Z,23.58
2022-08-14T17:22:53.885Z,23.59
2022-08-14T17:26:00.021Z,23.59
2022-08-14T17:29:14.176Z,23.37
2022-08-14T17:32:28.278Z,23.34
2022-08-14T17:35:58.715Z,23.38
2022-08-14T17:39:08.822Z,23.34
2022-08-14T17:42:33.504Z,23.22
2022-08-14T17:45:50.101Z,23.13
2022-08-14T17:49:14.693Z,22.97
2022-08-14T17:52:36.328Z,22.91
2022-08-14T17:56:00.892Z,22.92
2022-08-14T17:59:25.742Z,22.74
2022-08-14T18:02:35.722Z,22.57
2022-08-14T18:06:08.418Z,22.50
2022-08-14T18:09:25.175Z,22.26
2022-08-14T18:12:37.295Z,22.16
2022-08-14T18:15:51.029Z,22.11
2022-08-14T18:19:10.600Z,22.03
2022-08-14T18:22:24.033Z,21.95
2022-08-14T18:25:51.566Z,21.93
2022-08-14T18:29:01.929Z,21.83
2022-08-14T18:32:47.202Z,21.74
2022-08-14T18:36:46.280Z,21.72
2022-08-14T18:40:02.101Z,21.65
2022-08-14T18:43:03.997Z,21.60
2022-08-14T18:46:59.994Z,21.53
2022-08-14T18:50:19.115Z,21.55
2022-08-14T18:53:57.173Z,21.49
2022-08-14T18:57:05.600Z,21.42
2022-08-14T19:00:56.269Z,21.24
2022-08-14T19:04:08.453Z,21.17
2022-08-14T19:07:23.000Z,21.13
2022-08-14T19:10:37.564Z,21.05
2022-08-14T19:13:50.808Z,21.01
2022-08-14T19:16:57.568Z,20.89
2022-08-14T19:20:11.454Z,20.81
2022-08-14T19:23:22.682Z,20.77
2022-08-14T19:26:36.375Z,20.70
2022-08-14T19:30:26.049Z,20.47
2022-08-14T19:33:59.604Z,20.31
2022-08-14T19:37:09.890Z,20.23
2022-08-14T19:40:46.251Z,20.15
2022-08-14T19:44:19.397Z,20.15
2022-08-14T19:47:41.356Z,20.04
2022-08-14T19:50:48.998Z,20.04
2022-08-14T19:54:13.483Z,20.02
2022-08-14T19:57:22.825Z,19.98
2022-08-14T20:00:31.898Z,19.85
2022-08-14T20:03:59.790Z,19.86
2022-08-14T20:07:09.149Z,19.77
2022-08-14T20:11:03.178Z,19.76
2022-08-14T20:14:10.421Z,19.78
2022-08-14T20:17:23.195Z,19.86
2022-08-14T20:20:32.172Z,19.77
2022-08-14T20:23:41.870Z,19.65
2022-08-14T20:27:34.284Z,19.51
2022-08-14T20:30:41.406Z,19.47
2022-08-14T20:34:18.851Z,19.41
2022-08-14T20:37:35.971Z,19.45
2022-08-14T20:40:50.624Z,19.41
2022-08-14T20:44:13.059Z,19.28
2022-08-14T20:47:50.627Z,19.32
2022-08-14T20:51:00.427Z,19.34
2022-08-14T20:54:12.401Z,19.36
2022-08-14T20:57:18.634Z,19.38
2022-08-14T21:00:52.317Z,19.44
2022-08-14T21:04:01.744Z,19.42
2022-08-14T21:07:33.738Z,19.39
2022-08-14T21:10:53.281Z,19.45
2022-08-14T21:14:20.643Z,19.48
2022-08-14T21:17:37.300Z,19.47
2022-08-14T21:20:48.713Z,19.42
2022-08-14T21:24:09.333Z,19.47
2022-08-14T21:27:35.425Z,19.53
2022-08-14T21:30:46.613Z,19.49
2022-08-14T21:33:56.372Z,19.45
2022-08-14T21:37:23.244Z,19.39
2022-08-14T21:40:41.697Z,19.30
2022-08-14T21:43:48.168Z,19.38
2022-08-14T21:46:57.228Z,19.39
2022-08-14T21:51:00.367Z,19.30
2022-08-14T21:53:58.625Z,19.32
2022-08-14T21:57:13.740Z,19.26
2022-08-14T22:00:35.821Z,19.29
2022-08-14T22:03:46.917Z,19.23
2022-08-14T22:07:00.632Z,19.29
2022-08-14T22:10:11.417Z,19.34
2022-08-14T22:13:19.042Z,19.16
2022-08-14T22:17:00.207Z,19.10
2022-08-14T22:19:54.869Z,19.04
2022-08-14T22:23:08.797Z,18.80
2022-08-14T22:26:22.032Z,18.88
2022-08-14T22:29:27.927Z,18.91
2022-08-14T22:32:56.102Z,18.89
2022-08-14T22:35:59.492Z,18.91
2022-08-14T22:39:10.968Z,18.89
2022-08-14T22:42:22.603Z,18.86
2022-08-14T22:45:36.291Z,18.82
2022-08-14T22:48:43.339Z,18.86
2022-08-14T22:51:50.256Z,18.73
2022-08-14T22:54:58.703Z,18.76
2022-08-14T22:58:07.590Z,18.77
2022-08-14T23:01:22.878Z,18.67
2022-08-14T23:04:54.001Z,18.67
2022-08-14T23:08:56.115Z,18.65
2022-08-14T23:11:25.718Z,18.71
2022-08-14T23:14:33.936Z,18.67
2022-08-14T23:17:40.778Z,18.58
2022-08-14T23:20:49.156Z,18.63
2022-08-14T23:23:55.886Z,18.60
2022-08-14T23:27:01.779Z,18.65
2022-08-14T23:30:34.034Z,18.75
2022-08-14T23:33:51.878Z,18.81
2022-08-14T23:37:03.971Z,18.72
2022-08-14T23:40:26.452Z,18.71
2022-08-14T23:43:35.248Z,18.60
2022-08-14T23:46:44.492Z,18.49
2022-08-14T23:49:56.864Z,18.51
2022-08-14T23:53:28.184Z,18.38
2022-08-14T23:56:44.417Z,18.11
2022-08-14T23:59:54.680Z,17.98
